Time;durP1;ratioP1;P1;durP2;ratioP2;P2;SDS_P1;SDS_P2;PMS_P1;PMS_P2;Temp;Humidity;BMP_temperature;BMP_pressure;BME280_temperature;BME280_humidity;BME280_pressure;Samples;Min_cycle;Max_cycle;Signal;HPM_P1;HPM_P2
2021/11/05 00:00:13;;;;;;;1.13;1.03;;;;;;;5.70;100.00;98560.78;4991541;28;20041;-59
2021/11/05 00:02:39;;;;;;;1.33;1.23;;;;;;;5.51;100.00;98557.44;4987856;28;20043;-60
2021/11/05 00:05:04;;;;;;;2.97;2.20;;;;;;;5.39;100.00;98566.72;4983025;28;20507;-60
2021/11/05 00:07:30;;;;;;;3.47;2.50;;;;;;;5.24;100.00;98577.72;4989562;28;20065;-61
2021/11/05 00:09:55;;;;;;;2.67;1.90;;;;;;;5.11;100.00;98575.16;4986927;28;20347;-60
2021/11/05 00:12:21;;;;;;;2.03;1.90;;;;;;;5.02;100.00;98563.28;4983898;28;20042;-61
2021/11/05 00:14:46;;;;;;;2.40;2.00;;;;;;;4.86;100.00;98570.03;4979826;28;20433;-58
2021/11/05 00:17:12;;;;;;;1.50;1.40;;;;;;;4.76;100.00;98581.00;4983313;28;20029;-61
2021/11/05 00:19:38;;;;;;;2.17;1.13;;;;;;;4.66;100.00;98575.91;4987336;28;20027;-61
2021/11/05 00:22:05;;;;;;;1.40;1.30;;;;;;;4.57;100.00;98582.66;4985286;28;20054;-61
2021/11/05 00:24:30;;;;;;;3.83;2.47;;;;;;;4.50;100.00;98590.22;4986342;28;20023;-59
2021/11/05 00:26:56;;;;;;;2.80;1.50;;;;;;;4.46;100.00;98583.44;4986346;28;20034;-61
2021/11/05 00:29:21;;;;;;;2.17;1.57;;;;;;;4.38;100.00;98591.00;4992615;28;20057;-61
2021/11/05 00:31:47;;;;;;;2.40;1.80;;;;;;;4.35;100.00;98593.53;4984587;28;20031;-60
2021/11/05 00:34:12;;;;;;;1.60;1.50;;;;;;;4.32;100.00;98591.00;4987565;28;20146;-61
2021/11/05 00:36:37;;;;;;;2.33;1.63;;;;;;;4.35;100.00;98588.47;4986478;28;20057;-62
2021/11/05 00:39:03;;;;;;;2.10;1.80;;;;;;;4.34;100.00;98598.59;4994331;28;20026;-61
2021/11/05 00:41:28;;;;;;;1.63;1.30;;;;;;;4.34;100.00;98602.00;4989106;28;20121;-61
2021/11/05 00:43:54;;;;;;;3.30;1.90;;;;;;;4.33;100.00;98607.06;4986235;28;20507;-62
2021/11/05 00:46:19;;;;;;;1.33;1.23;;;;;;;4.31;100.00;98612.13;4993757;28;20031;-60
2021/11/05 00:48:45;;;;;;;1.50;1.40;;;;;;;4.34;100.00;98616.38;4989931;28;20037;-61
2021/11/05 00:51:10;;;;;;;1.80;1.23;;;;;;;4.34;100.00;98609.59;4989630;28;20125;-62
2021/11/05 00:53:35;;;;;;;1.40;1.30;;;;;;;4.33;100.00;98612.97;4989664;28;20034;-61
2021/11/05 00:56:01;;;;;;;1.90;1.80;;;;;;;4.26;100.00;98610.41;4987307;28;20037;-60
2021/11/05 00:58:27;;;;;;;1.53;1.43;;;;;;;4.21;100.00;98604.44;4988180;28;20140;-61
2021/11/05 01:00:52;;;;;;;1.77;1.67;;;;;;;4.13;100.00;98609.47;4989922;28;20034;-61
2021/11/05 01:03:18;;;;;;;1.73;1.63;;;;;;;4.05;100.00;98611.13;4994318;28;20239;-62
2021/11/05 01:05:43;;;;;;;1.63;1.53;;;;;;;3.96;100.00;98611.06;4988746;28;20042;-60
2021/11/05 01:08:09;;;;;;;3.20;2.00;;;;;;;3.93;100.00;98618.66;4989504;28;20061;-60
2021/11/05 01:10:35;;;;;;;2.80;1.77;;;;;;;3.89;100.00;98610.19;4991276;28;20121;-60
2021/11/05 01:13:06;;;;;;;1.93;1.80;;;;;;;3.84;100.00;98609.28;4992640;28;20057;-61
2021/11/05 01:15:32;;;;;;;2.77;2.00;;;;;;;3.74;100.00;98609.19;4993308;28;20451;-61
2021/11/05 01:17:57;;;;;;;2.40;1.83;;;;;;;3.69;100.00;98617.63;4986081;28;20133;-61
2021/11/05 01:20:23;;;;;;;2.37;2.17;;;;;;;3.69;100.00;98612.56;4992429;28;20101;-59
2021/11/05 01:22:49;;;;;;;2.57;2.00;;;;;;;3.70;100.00;98613.41;4988341;28;20038;-60
2021/11/05 01:25:15;;;;;;;2.27;2.07;;;;;;;3.66;100.00;98611.69;4992130;28;20033;-59
2021/11/05 01:27:45;;;;;;;3.60;2.57;;;;;;;3.64;100.00;98610.84;4993045;28;20022;-61
2021/11/05 01:30:12;;;;;;;2.47;2.27;;;;;;;3.81;100.00;98609.28;4984810;28;20052;-61
2021/11/05 01:32:38;;;;;;;3.20;2.70;;;;;;;3.79;100.00;98605.03;4995460;28;20032;-60
2021/11/05 01:35:05;;;;;;;5.00;2.30;;;;;;;3.80;100.00;98616.88;4992643;28;20042;-59
2021/11/05 01:37:31;;;;;;;2.70;2.50;;;;;;;3.81;100.00;98609.28;5003425;28;20093;-58
2021/11/05 01:39:56;;;;;;;2.37;2.17;;;;;;;4.08;100.00;98606.91;4986426;28;20512;-60
2021/11/05 01:42:22;;;;;;;2.43;2.23;;;;;;;4.07;100.00;98614.53;4989879;28;20045;-60
2021/11/05 01:44:47;;;;;;;4.37;2.57;;;;;;;3.98;100.00;98605.19;4991633;28;20098;-60
2021/11/05 01:47:13;;;;;;;2.30;2.10;;;;;;;3.89;100.00;98610.19;5000769;28;20350;-59
2021/11/05 01:49:38;;;;;;;2.17;2.00;;;;;;;4.12;100.00;98621.31;4995631;28;20756;-60
2021/11/05 01:52:05;;;;;;;3.00;2.80;;;;;;;3.95;100.00;98617.81;4986438;28;20030;-59
2021/11/05 01:54:31;;;;;;;2.47;2.27;;;;;;;3.92;100.00;98619.50;4989688;28;20037;-60
2021/11/05 01:56:56;;;;;;;3.13;2.87;;;;;;;4.20;100.00;98620.53;4990101;28;20038;-60
2021/11/05 01:59:28;;;;;;;3.93;2.10;;;;;;;4.14;100.00;98617.13;4988297;28;20057;-60
2021/11/05 02:01:55;;;;;;;2.53;2.10;;;;;;;4.14;100.00;98622.19;4989681;28;20032;-60
2021/11/05 02:04:21;;;;;;;2.70;2.20;;;;;;;4.22;100.00;98622.22;4988753;28;20400;-61
2021/11/05 02:06:49;;;;;;;3.83;2.00;;;;;;;4.56;100.00;98630.88;4994775;28;20358;-61
2021/11/05 02:09:18;;;;;;;2.60;2.00;;;;;;;4.71;100.00;98625.84;4990029;28;20102;-60
2021/11/05 02:11:45;;;;;;;2.63;2.20;;;;;;;4.79;100.00;98636.06;4997413;28;20048;-60
2021/11/05 02:14:14;;;;;;;2.13;1.93;;;;;;;4.98;100.00;98631.03;4991377;28;20141;-60
2021/11/05 02:16:42;;;;;;;1.97;1.70;;;;;;;5.18;100.00;98632.81;4987955;28;20141;-59
2021/11/05 02:19:15;;;;;;;2.20;2.00;;;;;;;5.43;100.00;98650.63;4989518;28;20023;-59
2021/11/05 02:21:42;;;;;;;2.30;2.10;;;;;;;5.41;100.00;98647.25;4999125;28;20034;-60
2021/11/05 02:24:09;;;;;;;1.90;1.80;;;;;;;5.47;100.00;98654.03;4987500;28;20023;-60
2021/11/05 02:26:34;;;;;;;2.13;1.97;;;;;;;5.44;100.00;98667.56;4990462;28;20038;-59
2021/11/05 02:29:00;;;;;;;3.13;2.07;;;;;;;5.29;100.00;98652.31;4996962;28;20549;-60
2021/11/05 02:31:25;;;;;;;2.03;1.73;;;;;;;5.43;100.00;98655.69;4987221;28;20035;-59
2021/11/05 02:33:51;;;;;;;2.47;2.27;;;;;;;5.43;100.00;98655.69;4995583;28;20117;-58
2021/11/05 02:36:16;;;;;;;4.50;2.27;;;;;;;5.46;100.00;98653.19;4998829;28;20374;-59
2021/11/05 02:38:42;;;;;;;2.60;2.40;;;;;;;5.68;100.00;98655.75;4987675;28;20029;-59
2021/11/05 02:41:07;;;;;;;1.80;1.70;;;;;;;5.60;100.00;98657.44;4983859;28;20031;-60
2021/11/05 02:43:33;;;;;;;2.40;2.07;;;;;;;5.55;100.00;98666.75;4985576;28;20054;-61
2021/11/05 02:46:00;;;;;;;2.00;1.90;;;;;;;5.69;100.00;98671.00;4980372;28;20050;-60
2021/11/05 02:48:27;;;;;;;1.87;1.77;;;;;;;5.78;100.00;98672.69;4982298;28;20032;-59
2021/11/05 02:50:54;;;;;;;1.60;1.47;;;;;;;5.94;100.00;98687.19;4984427;28;20488;-61
2021/11/05 02:53:19;;;;;;;1.43;1.27;;;;;;;6.06;100.00;98673.59;4981616;28;20046;-59
2021/11/05 02:55:45;;;;;;;1.53;1.30;;;;;;;6.10;100.00;98680.38;4984072;28;20469;-59
2021/11/05 02:58:10;;;;;;;2.47;1.67;;;;;;;6.09;100.00;98684.63;4987206;28;20468;-59
2021/11/05 03:00:36;;;;;;;1.30;1.20;;;;;;;6.02;100.00;98677.84;4983298;28;20069;-61
2021/11/05 03:03:01;;;;;;;1.40;1.30;;;;;;;5.91;100.00;98695.63;4980811;28;20116;-60
2021/11/05 03:05:27;;;;;;;1.10;1.00;;;;;;;6.03;100.00;98693.94;4982791;28;20501;-59
2021/11/05 03:07:52;;;;;;;1.40;1.30;;;;;;;6.07;100.00;98688.03;4989321;28;20033;-62
2021/11/05 03:10:18;;;;;;;2.00;1.33;;;;;;;6.16;100.00;98693.94;4980836;28;20378;-62
2021/11/05 03:12:45;;;;;;;1.57;1.20;;;;;;;6.17;100.00;98703.28;4983431;28;20057;-58
2021/11/05 03:15:10;;;;;;;1.57;1.20;;;;;;;6.43;100.00;98704.09;4983578;28;20192;-60
2021/11/05 03:17:36;;;;;;;2.17;1.43;;;;;;;6.38;100.00;98698.16;4987650;28;20121;-61
2021/11/05 03:20:08;;;;;;;2.97;1.50;;;;;;;6.56;100.00;98704.94;4993052;28;20041;-61
2021/11/05 03:22:34;;;;;;;2.90;1.70;;;;;;;6.61;100.00;98707.47;4984703;28;20236;-60
2021/11/05 03:24:59;;;;;;;2.77;1.30;;;;;;;6.62;100.00;98704.09;4989508;28;20034;-60
2021/11/05 03:27:25;;;;;;;1.47;1.20;;;;;;;6.61;100.00;98708.31;4993089;28;20026;-58
2021/11/05 03:29:51;;;;;;;1.60;1.50;;;;;;;6.58;100.00;98704.91;4994373;28;20454;-59
2021/11/05 03:32:16;;;;;;;1.90;1.30;;;;;;;6.63;100.00;98710.84;4985646;28;20030;-59
2021/11/05 03:34:41;;;;;;;1.40;1.30;;;;;;;6.51;100.00;98701.53;4992877;28;20044;-61
2021/11/05 03:37:07;;;;;;;1.90;1.60;;;;;;;6.45;100.00;98703.25;4994549;28;20030;-61
2021/11/05 03:39:34;;;;;;;2.60;1.80;;;;;;;6.41;100.00;98704.94;4989807;28;20202;-60
2021/11/05 03:42:00;;;;;;;1.50;1.40;;;;;;;6.55;100.00;98704.94;4987025;28;20056;-61
2021/11/05 03:44:26;;;;;;;1.50;1.40;;;;;;;6.53;100.00;98706.66;4989207;28;20034;-58
2021/11/05 03:46:52;;;;;;;1.93;1.73;;;;;;;6.57;100.00;98703.25;4992874;28;20081;-61
2021/11/05 03:49:17;;;;;;;2.10;1.50;;;;;;;6.54;100.00;98698.13;4991036;28;20469;-60
2021/11/05 03:51:43;;;;;;;2.37;1.90;;;;;;;6.60;100.00;98706.63;4988681;28;20030;-58
2021/11/05 03:54:08;;;;;;;2.60;2.43;;;;;;;6.69;100.00;98708.31;4989272;28;20424;-56
2021/11/05 03:56:34;;;;;;;1.57;1.47;;;;;;;6.70;100.00;98705.75;4987914;28;20035;-59
2021/11/05 03:59:00;;;;;;;9.23;2.43;;;;;;;6.68;100.00;98709.16;4995051;28;20395;-61
2021/11/05 04:01:26;;;;;;;1.80;1.70;;;;;;;6.68;100.00;98712.53;4991468;28;20038;-60
2021/11/05 04:03:52;;;;;;;1.90;1.80;;;;;;;6.71;100.00;98714.22;4993771;28;20511;-59
2021/11/05 04:06:19;;;;;;;2.10;1.57;;;;;;;6.70;100.00;98721.06;4987937;28;20062;-59
2021/11/05 04:08:44;;;;;;;1.60;1.43;;;;;;;6.73;100.00;98720.19;4987949;28;20038;-59
2021/11/05 04:11:10;;;;;;;1.30;1.20;;;;;;;6.69;100.00;98721.03;4985529;28;20030;-61
2021/11/05 04:13:36;;;;;;;2.07;1.40;;;;;;;6.61;100.00;98713.41;4990335;28;20480;-60
2021/11/05 04:16:01;;;;;;;3.33;1.27;;;;;;;6.62;100.00;98725.28;4985771;28;20522;-58
2021/11/05 04:18:27;;;;;;;2.23;2.03;;;;;;;6.68;99.80;98717.63;4984187;28;20541;-59
2021/11/05 04:20:52;;;;;;;1.50;1.40;;;;;;;6.60;100.00;98719.34;4990934;28;20035;-57
2021/11/05 04:23:18;;;;;;;1.30;1.30;;;;;;;6.65;100.00;98729.53;4991408;28;20034;-58
2021/11/05 04:25:45;;;;;;;2.00;1.50;;;;;;;6.63;100.00;98724.44;4990044;28;20319;-61
2021/11/05 04:28:11;;;;;;;1.30;1.20;;;;;;;6.62;100.00;98729.56;4992184;28;20030;-57
2021/11/05 04:30:38;;;;;;;2.20;1.53;;;;;;;6.72;99.86;98726.97;4987394;28;20053;-57
2021/11/05 04:33:04;;;;;;;7.40;3.20;;;;;;;6.66;99.74;98726.97;4993515;28;20558;-57
2021/11/05 04:35:30;;;;;;;2.53;1.90;;;;;;;6.66;99.50;98733.78;4991770;28;20030;-58
2021/11/05 04:37:55;;;;;;;4.87;3.23;;;;;;;6.72;98.35;98733.75;4990099;28;20032;-58
2021/11/05 04:40:21;;;;;;;1.93;1.83;;;;;;;6.75;98.25;98734.59;4989899;28;20120;-54
2021/11/05 04:42:46;;;;;;;1.60;1.47;;;;;;;6.81;96.68;98749.03;4986963;28;20062;-59
2021/11/05 04:45:12;;;;;;;2.20;1.30;;;;;;;6.85;96.42;98740.53;4997900;28;20037;-58
2021/11/05 04:47:37;;;;;;;1.40;1.30;;;;;;;6.82;95.91;98743.09;4984164;28;20030;-58
2021/11/05 04:50:03;;;;;;;1.57;1.40;;;;;;;6.88;95.44;98741.38;4987428;28;20150;-59
2021/11/05 04:52:29;;;;;;;1.80;1.67;;;;;;;6.92;94.04;98741.38;4994843;28;20030;-58
2021/11/05 04:54:54;;;;;;;1.43;1.33;;;;;;;6.95;95.40;98734.56;4989739;28;20029;-59
2021/11/05 04:57:20;;;;;;;2.50;1.27;;;;;;;7.00;94.42;98725.19;4987747;28;20065;-57
2021/11/05 04:59:46;;;;;;;1.40;1.30;;;;;;;6.98;94.37;98726.91;4989832;28;20376;-57
2021/11/05 05:02:11;;;;;;;1.33;1.23;;;;;;;6.97;93.61;98719.25;4998682;28;20033;-58
2021/11/05 05:04:37;;;;;;;1.40;1.30;;;;;;;6.87;95.29;98724.38;4993385;28;20037;-60
2021/11/05 05:07:02;;;;;;;2.33;1.40;;;;;;;6.91;95.48;98740.53;4992772;28;20142;-57
2021/11/05 05:09:28;;;;;;;1.37;1.27;;;;;;;6.93;95.04;98741.34;4989603;28;20061;-59
2021/11/05 05:11:53;;;;;;;0.97;0.97;;;;;;;6.88;94.81;98738.81;4991306;28;20085;-56
2021/11/05 05:14:19;;;;;;;1.67;1.57;;;;;;;6.98;94.07;98729.44;4985977;28;20064;-58
2021/11/05 05:16:44;;;;;;;1.63;1.53;;;;;;;7.03;92.29;98744.72;4988604;28;20109;-57
2021/11/05 05:19:10;;;;;;;1.63;1.30;;;;;;;7.02;92.21;98735.38;4997296;28;20117;-56
2021/11/05 05:21:36;;;;;;;1.20;1.10;;;;;;;7.00;91.96;98745.56;4988076;28;20210;-57
2021/11/05 05:24:01;;;;;;;1.50;1.40;;;;;;;7.01;91.19;98754.91;4995405;28;20065;-59
2021/11/05 05:26:27;;;;;;;1.63;1.50;;;;;;;7.01;91.72;98762.56;4988360;28;20106;-58
2021/11/05 05:28:52;;;;;;;1.47;1.33;;;;;;;6.98;92.32;98752.38;4981319;28;20046;-57
2021/11/05 05:31:18;;;;;;;3.73;1.30;;;;;;;7.03;90.40;98757.47;4981022;28;20069;-60
2021/11/05 05:33:43;;;;;;;1.37;1.20;;;;;;;7.05;90.66;98758.31;4984822;28;20081;-60
2021/11/05 05:36:09;;;;;;;1.43;1.30;;;;;;;7.11;89.77;98769.34;4978364;28;20444;-55
2021/11/05 05:38:36;;;;;;;1.53;1.40;;;;;;;7.07;89.57;98782.97;4983187;28;20030;-56
2021/11/05 05:41:02;;;;;;;1.87;1.60;;;;;;;7.14;89.14;98789.72;4989566;28;20026;-54
2021/11/05 05:43:28;;;;;;;1.60;1.07;;;;;;;7.03;92.93;98790.63;4983926;28;20460;-62
2021/11/05 05:45:53;;;;;;;1.50;1.40;;;;;;;6.99;94.29;98805.06;4981160;28;20047;-59
2021/11/05 05:48:20;;;;;;;2.30;1.30;;;;;;;6.95;94.71;98810.16;4985995;28;20107;-56
2021/11/05 05:50:45;;;;;;;2.83;1.80;;;;;;;6.82;98.41;98817.84;4989911;28;20028;-56
2021/11/05 05:53:11;;;;;;;1.77;1.67;;;;;;;6.80;98.89;98832.25;4988011;28;20034;-59
2021/11/05 05:55:38;;;;;;;1.47;1.13;;;;;;;6.78;97.53;98835.69;4983124;28;20580;-60
2021/11/05 05:58:05;;;;;;;3.57;1.60;;;;;;;6.74;99.94;98834.84;4981449;28;20120;-60
2021/11/05 06:00:32;;;;;;;5.00;1.63;;;;;;;6.79;99.43;98845.84;4986642;28;20022;-57
2021/11/05 06:02:58;;;;;;;1.40;1.27;;;;;;;6.73;99.87;98845.88;4982207;28;20038;-59
2021/11/05 06:05:24;;;;;;;2.60;1.50;;;;;;;6.86;97.74;98849.25;4984262;28;20027;-58
2021/11/05 06:07:49;;;;;;;3.73;1.80;;;;;;;6.83;97.29;98847.53;4988035;28;20029;-59
2021/11/05 06:10:15;;;;;;;1.93;1.30;;;;;;;6.88;98.33;98839.91;4989449;28;20057;-61
2021/11/05 06:12:40;;;;;;;2.07;1.30;;;;;;;6.89;98.10;98850.09;4982010;28;20157;-61
2021/11/05 06:15:06;;;;;;;2.17;1.30;;;;;;;6.94;97.07;98842.44;4984072;28;20030;-62
2021/11/05 06:17:33;;;;;;;2.17;1.60;;;;;;;6.98;94.18;98851.78;4984769;28;20045;-62
2021/11/05 06:19:58;;;;;;;2.97;2.07;;;;;;;6.94;95.78;98865.38;4987161;28;20427;-62
2021/11/05 06:22:23;;;;;;;4.10;1.23;;;;;;;7.01;92.41;98861.13;4986225;28;20043;-61
2021/11/05 06:24:49;;;;;;;2.40;1.50;;;;;;;7.04;92.14;98854.34;4989828;28;20027;-61
2021/11/05 06:27:15;;;;;;;2.03;1.50;;;;;;;7.23;88.51;98866.19;4986076;28;20038;-62
2021/11/05 06:29:40;;;;;;;1.60;1.50;;;;;;;7.35;86.62;98867.88;4991545;28;20041;-62
2021/11/05 06:32:06;;;;;;;1.93;1.30;;;;;;;7.34;87.62;98868.75;4987069;28;20039;-62
2021/11/05 06:34:32;;;;;;;2.07;1.37;;;;;;;7.26;87.45;98870.44;4985438;28;20035;-61
2021/11/05 06:36:57;;;;;;;2.57;1.50;;;;;;;7.33;87.20;98878.09;4992777;28;20038;-62
2021/11/05 06:39:24;;;;;;;1.83;1.20;;;;;;;7.37;86.84;98883.16;4989580;28;20034;-62
2021/11/05 06:41:50;;;;;;;1.23;1.20;;;;;;;7.41;86.54;98875.50;4987534;28;20081;-60
2021/11/05 06:44:15;;;;;;;1.30;1.10;;;;;;;7.39;88.02;98878.91;4988885;28;20461;-61
2021/11/05 06:46:40;;;;;;;1.73;1.63;;;;;;;7.43;88.13;98873.78;4989704;28;20033;-59
2021/11/05 06:49:06;;;;;;;2.63;1.10;;;;;;;7.45;87.23;98879.75;4990131;28;20485;-61
2021/11/05 06:51:32;;;;;;;2.00;1.40;;;;;;;7.54;86.52;98884.84;4980338;28;20620;-61
2021/11/05 06:53:57;;;;;;;1.30;1.20;;;;;;;7.54;86.31;98886.53;4992580;28;20122;-60
2021/11/05 06:56:23;;;;;;;1.83;1.67;;;;;;;7.54;87.31;98884.84;4991445;28;20121;-61
2021/11/05 06:58:49;;;;;;;1.53;1.43;;;;;;;7.45;89.55;98897.59;4987058;28;20420;-61
2021/11/05 07:01:16;;;;;;;2.40;1.37;;;;;;;7.49;89.85;98899.28;4984943;28;20122;-61
2021/11/05 07:03:41;;;;;;;4.47;1.20;;;;;;;7.48;90.89;98905.25;4984387;28;20113;-61
2021/11/05 07:06:07;;;;;;;1.67;1.30;;;;;;;7.55;90.26;98909.50;4991832;28;20485;-61
2021/11/05 07:08:32;;;;;;;5.47;1.13;;;;;;;7.59;88.26;98918.00;5000953;28;20027;-61
2021/11/05 07:11:00;;;;;;;6.47;2.23;;;;;;;7.71;86.76;98913.69;4989802;28;20500;-61
2021/11/05 07:13:26;;;;;;;1.33;1.23;;;;;;;7.78;85.70;98928.13;4982840;28;20050;-60
2021/11/05 07:15:52;;;;;;;1.50;1.30;;;;;;;7.96;82.88;98932.31;4990932;28;20097;-61
2021/11/05 07:18:18;;;;;;;1.83;1.30;;;;;;;8.11;80.48;98927.13;4995420;28;20017;-60
2021/11/05 07:20:44;;;;;;;2.07;1.50;;;;;;;8.19;77.22;98929.66;4988107;28;20125;-61
2021/11/05 07:23:11;;;;;;;0.93;0.93;;;;;;;8.20;76.48;98941.56;4996962;28;20061;-61
2021/11/05 07:25:37;;;;;;;3.43;1.60;;;;;;;8.27;74.71;98938.97;4995672;28;20096;-62
2021/11/05 07:28:03;;;;;;;0.90;0.90;;;;;;;8.36;74.80;98943.22;4991220;28;20481;-61
2021/11/05 07:30:29;;;;;;;1.70;1.10;;;;;;;8.44;73.51;98935.53;4986817;28;20089;-60
2021/11/05 07:32:55;;;;;;;1.10;0.97;;;;;;;8.47;73.71;98944.03;4992056;28;20048;-60
2021/11/05 07:35:22;;;;;;;1.17;0.93;;;;;;;8.50;72.75;98941.44;4987475;28;20031;-60
2021/11/05 07:37:48;;;;;;;1.33;1.03;;;;;;;8.52;72.82;98949.97;4980330;28;20042;-61
2021/11/05 07:40:14;;;;;;;1.27;1.20;;;;;;;8.65;72.75;98948.19;4988253;28;20515;-60
2021/11/05 07:42:41;;;;;;;1.50;1.43;;;;;;;8.71;71.46;98953.25;4988228;28;20162;-60
2021/11/05 07:45:08;;;;;;;2.00;1.40;;;;;;;8.64;71.38;98960.13;4985274;28;20148;-61
2021/11/05 07:47:34;;;;;;;1.37;1.30;;;;;;;8.69;71.00;98958.38;4983477;28;20070;-61
2021/11/05 07:50:00;;;;;;;3.53;1.30;;;;;;;8.89;69.49;98953.13;4986396;28;20125;-61
2021/11/05 07:52:26;;;;;;;1.80;1.70;;;;;;;8.68;67.92;98951.56;4986450;28;20034;-62
2021/11/05 07:54:51;;;;;;;0.90;0.90;;;;;;;8.80;69.02;98952.34;4987722;28;20037;-61
2021/11/05 07:57:17;;;;;;;1.63;1.20;;;;;;;8.76;69.52;98961.75;4999755;28;20366;-61
2021/11/05 07:59:42;;;;;;;1.43;1.30;;;;;;;8.77;69.84;98955.78;4988237;28;20079;-61
2021/11/05 08:02:08;;;;;;;1.17;1.00;;;;;;;8.81;68.55;98951.50;4995828;28;20035;-61
2021/11/05 08:04:34;;;;;;;2.30;1.40;;;;;;;8.93;68.19;98961.63;4985265;28;20026;-61
2021/11/05 08:07:00;;;;;;;1.20;1.10;;;;;;;8.90;66.90;98964.22;4987676;28;20065;-61
2021/11/05 08:09:25;;;;;;;1.20;1.10;;;;;;;9.01;66.18;98960.72;4986428;28;20030;-61
2021/11/05 08:11:51;;;;;;;2.00;1.27;;;;;;;9.00;65.67;98963.25;4997916;28;20049;-61
2021/11/05 08:14:16;;;;;;;1.10;1.00;;;;;;;9.07;65.22;98970.91;4980901;28;20505;-61
2021/11/05 08:16:42;;;;;;;5.07;1.30;;;;;;;9.20;64.32;98970.81;4983893;28;20432;-61
2021/11/05 08:19:07;;;;;;;4.73;1.20;;;;;;;9.21;64.61;98981.00;4981508;28;20023;-61
2021/11/05 08:21:33;;;;;;;1.17;1.10;;;;;;;9.24;63.10;98981.00;4985391;28;20057;-61
2021/11/05 08:23:59;;;;;;;0.97;0.90;;;;;;;9.28;63.44;98989.50;4985823;28;20066;-62
2021/11/05 08:26:26;;;;;;;1.00;1.00;;;;;;;9.23;63.09;98997.22;4986262;28;20034;-61
2021/11/05 08:28:52;;;;;;;1.27;1.27;;;;;;;9.13;63.32;99001.53;4988556;28;20019;-61
2021/11/05 08:31:18;;;;;;;1.57;0.87;;;;;;;9.22;62.68;98995.50;4985295;28;20147;-60
2021/11/05 08:33:45;;;;;;;1.10;1.10;;;;;;;9.17;62.43;99008.31;4982847;28;20129;-62
2021/11/05 08:36:13;;;;;;;0.97;0.90;;;;;;;9.26;62.74;99012.53;4986345;28;20034;-60
2021/11/05 08:38:41;;;;;;;1.07;1.07;;;;;;;9.17;62.78;99000.66;4987313;28;20049;-61
2021/11/05 08:41:07;;;;;;;1.10;1.00;;;;;;;9.16;64.12;99009.19;4985057;28;20093;-61
2021/11/05 08:43:34;;;;;;;1.20;1.10;;;;;;;9.26;63.78;99014.22;4983668;28;20038;-62
2021/11/05 08:46:05;;;;;;;1.20;1.10;;;;;;;9.29;63.79;99012.53;4987935;28;20515;-60
2021/11/05 08:48:32;;;;;;;1.10;1.00;;;;;;;9.25;63.90;99017.66;4992384;28;20508;-61
2021/11/05 08:51:00;;;;;;;1.37;1.13;;;;;;;9.23;63.54;99016.81;4987848;28;20041;-59
2021/11/05 08:53:26;;;;;;;1.37;1.10;;;;;;;9.38;62.75;99021.81;4982548;28;20075;-61
2021/11/05 08:55:51;;;;;;;3.00;1.40;;;;;;;9.40;63.23;99028.63;4984827;28;20177;-59
2021/11/05 08:58:17;;;;;;;4.43;1.27;;;;;;;9.44;62.36;99021.78;4987674;28;20501;-61
2021/11/05 09:00:42;;;;;;;2.65;2.03;;;;;;;9.52;62.73;99020.84;4987481;28;20038;-60
2021/11/05 09:03:08;;;;;;;3.67;2.20;;;;;;;9.53;61.16;99037.91;4984003;28;20042;-62
2021/11/05 09:05:35;;;;;;;4.18;3.13;;;;;;;9.59;61.63;99036.97;4986271;28;20028;-61
2021/11/05 09:08:01;;;;;;;1.67;1.57;;;;;;;9.61;61.51;99045.50;4987862;28;20085;-60
2021/11/05 09:10:28;;;;;;;1.48;1.38;;;;;;;9.52;61.88;99036.19;4992072;28;20026;-61
2021/11/05 09:12:53;;;;;;;1.20;1.20;;;;;;;9.50;61.70;99043.06;4984141;28;20434;-60
2021/11/05 09:15:24;;;;;;;1.50;1.20;;;;;;;9.47;61.48;99055.00;4983132;28;20067;-61
2021/11/05 09:17:53;;;;;;;1.17;1.10;;;;;;;9.50;62.41;99053.28;4989719;28;20389;-60
2021/11/05 09:20:19;;;;;;;1.58;1.10;;;;;;;9.42;62.38;99056.78;4989463;28;20505;-59
2021/11/05 09:22:48;;;;;;;1.63;1.10;;;;;;;9.64;62.81;99055.72;4990477;28;20045;-60
2021/11/05 09:25:14;;;;;;;1.20;1.10;;;;;;;9.59;63.26;99071.09;4993538;28;20452;-62
2021/11/05 09:27:40;;;;;;;4.20;1.20;;;;;;;9.52;62.75;99071.19;4992030;28;20065;-60
2021/11/05 09:30:08;;;;;;;1.80;1.03;;;;;;;9.55;62.70;99076.25;4986475;28;20038;-62
2021/11/05 09:32:33;;;;;;;1.08;1.08;;;;;;;9.53;62.34;99076.28;4989103;28;20434;-62
2021/11/05 09:34:59;;;;;;;2.10;0.90;;;;;;;9.69;63.20;99077.00;4988329;28;20061;-60
2021/11/05 09:37:24;;;;;;;1.38;1.15;;;;;;;9.81;62.46;99081.16;4990612;28;20032;-59
2021/11/05 09:39:50;;;;;;;1.08;0.90;;;;;;;9.94;62.00;99085.31;4987361;28;20085;-62
2021/11/05 09:42:16;;;;;;;1.50;1.02;;;;;;;10.00;61.16;99083.56;4984989;28;20045;-60
2021/11/05 09:44:43;;;;;;;1.10;1.10;;;;;;;10.07;61.46;99092.03;4994021;28;20225;-60
2021/11/05 09:47:08;;;;;;;1.95;1.85;;;;;;;10.08;60.65;99098.88;4989751;28;20037;-61
2021/11/05 09:49:34;;;;;;;1.45;1.10;;;;;;;10.16;58.99;99107.34;4995055;28;20483;-60
2021/11/05 09:52:01;;;;;;;1.63;1.20;;;;;;;10.25;59.85;99103.84;4987951;28;20160;-61
2021/11/05 09:54:30;;;;;;;1.70;1.60;;;;;;;10.24;59.30;99104.72;4991478;28;20030;-61
2021/11/05 09:56:57;;;;;;;1.30;1.20;;;;;;;10.35;58.91;99113.16;4991520;28;20045;-60
2021/11/05 09:59:23;;;;;;;3.17;1.60;;;;;;;10.38;57.94;99115.69;4989658;28;20031;-59
2021/11/05 10:01:48;;;;;;;1.50;1.40;;;;;;;10.30;57.93;99109.78;4985330;28;20050;-60
2021/11/05 10:04:14;;;;;;;2.35;1.27;;;;;;;10.41;58.09;99116.50;4989472;28;20027;-60
2021/11/05 10:06:57;;;;;;;1.13;1.13;;;;;;;10.56;58.02;99102.66;4995137;28;20172;-60
2021/11/05 10:09:23;;;;;;;2.70;1.33;;;;;;;10.51;57.59;99115.53;4981949;28;20030;-61
2021/11/05 10:11:48;;;;;;;1.15;1.05;;;;;;;10.78;56.94;99109.22;4990158;28;20393;-61
2021/11/05 10:14:19;;;;;;;1.50;1.40;;;;;;;10.77;56.37;99106.69;4994442;28;20113;-61
2021/11/05 10:17:09;;;;;;;2.92;1.75;;;;;;;10.95;55.30;99109.00;4987867;28;20039;-60
2021/11/05 10:19:58;;;;;;;2.20;1.70;;;;;;;11.04;56.26;99110.59;4988703;28;20072;-61
2021/11/05 10:22:49;;;;;;;2.47;1.80;;;;;;;11.18;55.66;99113.84;4989748;28;20035;-60
2021/11/05 10:25:40;;;;;;;2.80;2.05;;;;;;;11.15;54.76;99121.59;4989930;28;20041;-61
2021/11/05 10:28:07;;;;;;;2.33;1.15;;;;;;;11.34;53.60;99121.31;4989789;28;20039;-60
2021/11/05 10:30:45;;;;;;;1.60;1.17;;;;;;;11.48;53.57;99115.97;4991205;28;20109;-60
2021/11/05 10:33:12;;;;;;;1.30;1.10;;;;;;;11.52;53.47;99111.66;4986390;28;20034;-59
2021/11/05 10:35:44;;;;;;;1.15;1.05;;;;;;;11.78;53.88;99107.00;4990642;28;20062;-61
2021/11/05 10:38:12;;;;;;;1.00;1.00;;;;;;;12.25;52.07;99111.31;4984203;28;20744;-61
2021/11/05 10:40:50;;;;;;;1.63;1.02;;;;;;;12.25;51.99;99098.47;4984645;28;20105;-61
2021/11/05 10:43:33;;;;;;;0.85;0.85;;;;;;;12.20;50.63;99105.41;4987467;28;20149;-62
2021/11/05 10:45:59;;;;;;;1.17;1.10;;;;;;;12.13;51.20;99096.13;4992066;28;20065;-60
2021/11/05 10:48:28;;;;;;;1.23;1.20;;;;;;;12.27;50.29;99101.84;4980093;28;20446;-61
2021/11/05 10:50:56;;;;;;;1.27;1.17;;;;;;;12.27;50.27;99102.69;4998707;28;20132;-61
2021/11/05 10:53:29;;;;;;;1.10;0.90;;;;;;;12.35;49.58;99099.97;4998828;28;20035;-61
2021/11/05 10:56:03;;;;;;;0.85;0.85;;;;;;;12.55;49.97;99097.88;4989360;28;20048;-61
2021/11/05 10:58:30;;;;;;;0.80;0.80;;;;;;;12.53;48.91;99094.47;4983445;28;20314;-58
2021/11/05 11:00:57;;;;;;;0.82;0.82;;;;;;;12.50;49.47;99089.41;4985059;28;20022;-61
2021/11/05 11:03:32;;;;;;;1.20;0.80;;;;;;;12.21;49.70;99096.81;4985058;28;20033;-59
2021/11/05 11:06:19;;;;;;;0.95;0.95;;;;;;;12.17;51.11;99088.31;4975965;28;20034;-59
2021/11/05 11:08:49;;;;;;;0.75;0.75;;;;;;;12.22;49.92;99089.06;4983244;28;20042;-60
2021/11/05 11:11:19;;;;;;;1.55;1.00;;;;;;;12.20;51.31;99084.84;4989421;28;20076;-61
2021/11/05 11:13:48;;;;;;;1.80;0.90;;;;;;;12.28;51.10;99078.69;4983187;28;20164;-64
2021/11/05 11:16:28;;;;;;;1.60;0.90;;;;;;;12.22;50.79;99090.81;4980503;28;20093;-55
2021/11/05 11:19:08;;;;;;;1.00;1.00;;;;;;;12.23;50.84;99092.47;4979256;28;20321;-58
2021/11/05 11:21:52;;;;;;;0.88;0.88;;;;;;;12.06;51.21;99079.94;4986454;28;20377;-59
2021/11/05 11:24:20;;;;;;;1.17;1.13;;;;;;;12.15;51.13;99089.22;4985099;28;20025;-60
2021/11/05 11:26:49;;;;;;;0.73;0.73;;;;;;;12.13;51.75;99090.97;4982144;28;20026;-58
2021/11/05 11:29:16;;;;;;;1.00;1.00;;;;;;;12.10;51.02;99073.00;4981824;28;20037;-59
2021/11/05 11:31:44;;;;;;;4.72;1.10;;;;;;;12.21;51.87;99071.97;4987676;28;20081;-60
2021/11/05 11:34:11;;;;;;;0.82;0.80;;;;;;;12.15;51.50;99073.78;4981846;28;20045;-59